Latest Weather Observations for Mount Read

IDT60801

Issued at 3:32 pm EST Sunday 20 August 2017 (issued every 30 minutes, with the page automatically refreshed every 10 minutes)

About weather observations | Map of weather stations | Latest weather observations for TAS | Other Formats
Station Details ID: 097085 Name: MOUNT READ Lat: -41.84 Lon: 145.54 Height: 1119.5 m
Data from the previous 72 hours. | See also: Recent months at Mount Read
Date/Time
EST
Temp
°C
App
Temp
°C
Dew
Point
°C
Rel
Hum
%
Delta-T
°C
Wind Press
QNH
hPa
Press
MSL
hPa
Rain since
9am
mm
Dir  Spd
km/h
Gust
km/h
Spd
kts
Gust
kts
20/03:30pm 0.4 -4.4 0.4 100 0.0 W 15 20 8 11 1016.7 1018.9 8.8
20/03:00pm 0.3 -5.2 0.3 100 0.0 W 19 24 10 13 1016.7 1018.9 7.6
20/02:30pm -0.1 -6.3 -0.1 100 0.0 W 22 28 12 15 1016.9 1019.2 7.0
20/02:00pm 0.6 -3.4 0.6 100 0.0 W 11 17 6 9 1017.1 1019.4 6.0
20/01:30pm 0.5 -4.3 0.5 100 0.0 W 15 20 8 11 1017.4 1019.7 5.0
20/01:00pm 0.3 -6.2 0.3 100 0.0 W 24 32 13 17 1017.7 1020.0 3.8
20/12:30pm 0.3 -3.0 0.3 100 0.0 NW 7 17 4 9 1018.3 1020.7 3.0
20/12:00pm 0.6 -2.4 0.6 100 0.0 WNW 6 7 3 4 1018.9 1021.2 2.2
20/11:30am 0.3 -3.0 0.3 100 0.0 WNW 7 9 4 5 1019.5 1021.8 1.4
20/11:00am 0.0 -3.1 0.0 100 0.0 WNW 6 9 3 5 1019.9 1022.3 0.4
20/10:30am -0.1 -2.1 -0.1 100 0.0 CALM 0 2 0 1 1020.1 1022.5 0.2
20/10:00am -0.1 -2.9 -0.1 100 0.0 W 4 6 2 3 1020.1 1022.5 0.2
20/09:30am -0.2 -3.4 -0.2 100 0.0 SW 6 7 3 4 1020.2 1022.6 0.0
20/09:00am -0.3 -3.5 -0.3 100 0.0 SW 6 7 3 4 1020.2 1022.6 3.2
20/08:30am -0.3 -3.5 -0.3 100 0.0 SW 6 7 3 4 1020.2 1022.6 3.2
20/08:00am -0.5 -3.7 -0.5 100 0.0 SW 6 7 3 4 1020.1 1022.5 3.2
20/07:30am -0.8 -4.0 -0.8 100 0.0 SW 6 7 3 4 1020.0 1022.4 3.2
20/07:00am -0.7 -3.9 -0.7 100 0.0 SW 6 7 3 4 1019.8 1022.1 3.2
20/06:30am -0.5 -3.9 -0.5 100 0.0 SW 7 9 4 5 1019.9 1022.3 3.2
20/06:00am -0.5 -3.9 -0.5 100 0.0 SW 7 7 4 4 1019.8 1022.1 3.2
20/05:30am -0.6 -4.0 -0.6 100 0.0 SW 7 7 4 4 1019.8 1022.1 3.2
20/05:00am -0.8 -4.2 -0.8 100 0.0 SW 7 9 4 5 1019.9 1022.3 3.2
20/04:30am -0.9 -4.3 -0.9 100 0.0 SW 7 9 4 5 1020.0 1022.4 3.2
20/04:00am -1.3 -5.2 -1.3 100 0.0 SW 9 9 5 5 1020.0 1022.4 3.2
20/03:30am -1.5 -5.0 -1.5 100 0.0 SW 7 11 4 6 1020.1 1022.5 3.2
20/03:00am -1.7 -5.6 -1.7 100 0.0 SW 9 11 5 6 1020.1 1022.5 3.2
20/02:30am -2.4 -6.4 -2.4 100 0.0 SW 9 9 5 5 1020.2 1022.6 3.2
20/02:00am -1.6 -5.1 -1.6 100 0.0 SW 7 11 4 6 1020.6 1022.9 3.2
20/01:30am -1.4 -5.3 -1.4 100 0.0 SW 9 11 5 6 1020.8 1023.2 3.2
20/01:00am -1.5 -5.4 -1.5 100 0.0 SW 9 13 5 7 1020.9 1023.3 3.2
20/12:30am -1.7 -5.6 -1.7 100 0.0 SW 9 11 5 6 1021.0 1023.4 3.2
20/12:00am -1.8 -5.7 -1.8 100 0.0 SW 9 11 5 6 1021.1 1023.5 3.2
 
Date/Time
EST
Temp
°C
App
Temp
°C
Dew
Point
°C
Rel
Hum
%
Delta-T
°C
Wind Press
QNH
hPa
Press
MSL
hPa
Rain since
9am
mm
Dir  Spd
km/h
Gust
km/h
Spd
kts
Gust
kts
19/11:30pm -1.8 -5.7 -1.8 100 0.0 SW 9 13 5 7 1021.0 1023.4 3.2
19/11:00pm -2.4 -6.4 -2.4 100 0.0 SW 9 11 5 6 1021.0 1023.4 3.2
19/10:30pm -1.9 -6.2 -1.9 100 0.0 SW 11 13 6 7 1021.0 1023.4 3.2
19/10:00pm -1.8 -6.1 -1.8 100 0.0 SW 11 13 6 7 1020.9 1023.3 3.2
19/09:30pm -1.9 -6.2 -1.9 100 0.0 SW 11 13 6 7 1020.8 1023.2 3.2
19/09:00pm -2.0 -6.0 -2.0 100 0.0 SW 9 11 5 6 1020.9 1023.3 3.2
19/08:30pm -2.2 -6.2 -2.2 100 0.0 SW 9 9 5 5 1020.9 1023.3 3.2
19/08:00pm -2.2 -7.0 -2.2 100 0.0 SW 13 15 7 8 1020.9 1023.3 3.2
19/07:30pm -2.0 -6.7 -2.0 100 0.0 SW 13 15 7 8 1021.0 1023.4 3.2
19/07:00pm -2.1 -6.8 -2.1 100 0.0 SW 13 15 7 8 1021.0 1023.4 3.2
19/06:30pm -1.9 -6.6 -1.9 100 0.0 SW 13 15 7 8 1021.1 1023.5 3.2
19/06:00pm -1.8 -6.1 -1.8 100 0.0 SW 11 13 6 7 1021.1 1023.5 3.2
19/05:30pm -1.9 -6.2 -1.9 100 0.0 SW 11 15 6 8 1020.9 1023.3 3.2
19/05:00pm -1.8 -6.5 -1.8 100 0.0 SW 13 17 7 9 1020.8 1023.2 3.2
19/04:30pm -1.6 -5.9 -1.6 100 0.0 SW 11 15 6 8 1020.8 1023.2 3.0
19/04:00pm -1.4 -6.0 -1.4 100 0.0 SW 13 17 7 9 1020.6 1022.9 2.8
19/03:30pm -1.5 -6.2 -1.5 100 0.0 SW 13 17 7 9 1020.7 1023.1 2.6
19/03:00pm -1.2 -5.8 -1.2 100 0.0 SW 13 17 7 9 1020.6 1022.9 2.6
19/02:30pm -1.1 -5.7 -1.1 100 0.0 SW 13 15 7 8 1020.6 1022.9 2.4
19/02:00pm -1.4 -6.0 -1.4 100 0.0 SW 13 17 7 9 1020.3 1022.7 2.0
19/01:30pm -0.9 -5.5 -0.9 100 0.0 SW 13 15 7 8 1020.3 1022.7 1.8
19/01:00pm -0.7 -5.3 -0.7 100 0.0 SW 13 17 7 9 1020.5 1022.8 1.6
19/12:30pm -1.0 -5.6 -1.0 100 0.0 SW 13 19 7 10 1020.5 1022.8 1.2
19/12:00pm -0.9 -5.1 -0.9 100 0.0 SW 11 15 6 8 1020.7 1023.1 1.0
19/11:30am -1.0 -4.8 -1.0 100 0.0 SW 9 11 5 6 1020.9 1023.3 1.0
19/11:00am -1.1 -4.9 -1.1 100 0.0 SW 9 11 5 6 1020.9 1023.3 0.8
19/10:30am -1.3 -5.6 -1.3 100 0.0 SW 11 15 6 8 1020.9 1023.3 0.6
19/10:00am -1.2 -6.2 -1.2 100 0.0 SW 15 17 8 9 1020.3 1022.7 0.2
19/09:30am -1.6 -5.9 -1.6 100 0.0 SW 11 13 6 7 1020.2 1022.6 0.0
19/09:00am -2.1 -7.2 -2.1 100 0.0 SW 15 17 8 9 1020.0 1022.4 2.2
19/08:30am -2.7 -7.9 -2.7 100 0.0 SW 15 17 8 9 1019.6 1021.9 2.2
19/08:00am -2.9 -8.5 -2.9 100 0.0 SW 17 19 9 10 1019.0 1021.3 2.2
19/07:30am -3.1 -8.3 -3.1 100 0.0 SW 15 17 8 9 1018.5 1020.8 2.2
19/07:00am -3.2 -8.8 -3.2 100 0.0 SW 17 20 9 11 1018.1 1020.4 2.2
19/06:30am -3.4 -9.4 -3.4 100 0.0 SW 19 20 10 11 1017.4 1019.7 2.2
19/06:00am -3.3 -8.9 -3.3 100 0.0 SW 17 19 9 10 1016.9 1019.2 2.2
19/05:30am -3.4 -9.1 -3.4 100 0.0 SW 17 19 9 10 1016.9 1019.2 2.2
19/05:00am -3.4 -8.7 -3.4 100 0.0 SW 15 17 8 9 1016.4 1018.7 2.2
19/04:30am -3.4 -9.4 -3.4 100 0.0 SW 19 20 10 11 1016.0 1018.2 2.2
19/04:00am -3.4 -9.6 -3.4 100 0.0 SW 20 20 11 11 1015.6 1017.8 2.2
19/03:30am -3.8 -9.9 -3.8 100 0.0 SW 19 22 10 12 1015.2 1017.4 2.2
19/03:00am -3.8 -10.1 -3.8 100 0.0 SW 20 22 11 12 1015.1 1017.3 2.2
19/02:30am -3.6 -9.7 -3.6 100 0.0 SW 19 22 10 12 1015.0 1017.2 2.2
19/02:00am -3.4 -9.6 -3.4 100 0.0 SW 20 22 11 12 1014.8 1017.0 2.2
19/01:30am -3.7 -10.0 -3.7 100 0.0 SW 20 24 11 13 1014.4 1016.6 2.2
19/01:00am -4.1 -10.8 -4.1 100 0.0 SW 22 24 12 13 1014.1 1016.3 2.2
19/12:30am -4.3 -11.0 -4.3 100 0.0 SW 22 24 12 13 1013.7 1015.8 2.2
19/12:00am -4.2 -10.5 -4.2 100 0.0 SW 20 22 11 12 1013.2 1015.4 2.2
 
Date/Time
EST
Temp
°C
App
Temp
°C
Dew
Point
°C
Rel
Hum
%
Delta-T
°C
Wind Press
QNH
hPa
Press
MSL
hPa
Rain since
9am
mm
Dir  Spd
km/h
Gust
km/h
Spd
kts
Gust
kts
18/11:30pm -3.9 -10.9 -3.9 100 0.0 SW 24 26 13 14 1012.8 1014.9 2.2
18/11:00pm -3.9 -10.2 -3.9 100 0.0 SW 20 22 11 12 1012.8 1014.9 2.2
18/10:30pm -3.9 -10.6 -3.9 100 0.0 SW 22 26 12 14 1012.5 1014.7 2.2
18/10:00pm -3.9 -10.6 -3.9 100 0.0 SW 22 24 12 13 1012.4 1014.6 2.2
18/09:30pm -4.0 -10.7 -4.0 100 0.0 SW 22 24 12 13 1011.9 1014.0 2.2
18/09:00pm -3.6 -9.9 -3.6 100 0.0 SW 20 24 11 13 1011.4 1013.5 2.2
18/08:30pm -3.2 -10.2 -3.2 100 0.0 SW 24 28 13 15 1010.9 1013.0 2.2
18/08:00pm -2.8 -9.3 -2.8 100 0.0 SW 22 26 12 14 1010.4 1012.5 2.2
18/07:30pm -2.6 -9.1 -2.6 100 0.0 SW 22 26 12 14 1009.9 1011.9 2.2
18/07:00pm -2.6 -9.1 -2.6 100 0.0 SW 22 28 12 15 1009.4 1011.5 2.2
18/06:30pm -2.5 -9.4 -2.5 100 0.0 SW 24 28 13 15 1008.8 1010.8 2.2
18/06:00pm -2.6 -9.5 -2.6 100 0.0 SW 24 28 13 15 1008.1 1010.1 2.2
18/05:30pm -2.4 -9.6 -2.4 100 0.0 SW 26 33 14 18 1007.2 1009.2 2.2
18/05:00pm -2.5 -10.5 -2.5 100 0.0 SW 30 37 16 20 1006.3 1008.3 2.2
18/04:30pm -2.0 -10.0 -2.0 100 0.0 SW 30 39 16 21 1005.6 1007.6 2.2
18/04:00pm -2.1 -10.1 -2.1 100 0.0 SW 30 35 16 19 1005.0 1006.9 2.2
18/03:30pm -2.0 -10.3 -2.0 100 0.0 SW 32 41 17 22 1004.4 1006.3 2.2
18/03:00pm -2.0 -9.2 -2.0 100 0.0 SW 26 32 14 17 1004.2 1006.1 2.0
18/02:30pm -1.6 -9.5 -1.6 100 0.0 SW 30 35 16 19 1003.6 1005.5 1.8
18/02:00pm -1.6 -9.9 -1.6 100 0.0 SW 32 39 17 21 1002.8 1004.7 1.6
18/01:30pm -1.7 -10.2 -1.7 100 0.0 SW 33 39 18 21 1002.3 1004.1 1.2
18/01:00pm -1.6 -9.5 -1.6 100 0.0 SW 30 37 16 20 1002.1 1003.9 0.8
18/12:30pm -1.4 -7.2 -1.4 100 0.0 SW 19 24 10 13 1002.3 1004.1 0.6
18/12:00pm -1.2 -7.9 -1.2 100 0.0 SW 24 30 13 16 1001.9 1003.8 0.4
18/11:30am -1.3 -8.8 -1.3 100 0.0 WSW 28 35 15 19 1001.6 1003.5 0.2
18/11:00am -1.3 -8.8 -1.3 100 0.0 WSW 28 35 15 19 1001.2 1003.0 0.0
18/10:30am -1.2 -9.1 -1.2 100 0.0 WSW 30 35 16 19 1000.5 1002.3 0.0
18/10:00am -1.3 -9.5 -1.3 100 0.0 WSW 32 37 17 20 999.8 1001.6 0.0
18/09:30am -1.5 -9.0 -1.5 100 0.0 WSW 28 33 15 18 999.6 1001.4 0.0
18/09:00am -1.6 -9.5 -1.6 100 0.0 WSW 30 35 16 19 999.2 1000.9 10.4
18/08:30am -1.5 -8.6 -1.5 100 0.0 WSW 26 32 14 17 998.7 1000.5 10.4
18/08:00am -1.5 -7.3 -1.5 100 0.0 WSW 19 22 10 12 998.0 999.8 10.4
18/07:30am -1.3 -7.3 -1.3 100 0.0 WSW 20 26 11 14 997.3 999.0 10.4
18/07:00am -1.4 -7.4 -1.4 100 0.0 WSW 20 24 11 13 996.8 998.5 10.4
18/06:30am -1.5 -8.3 -1.5 100 0.0 WSW 24 28 13 15 996.1 997.8 10.4
18/06:00am -1.5 -6.9 -1.5 100 0.0 WSW 17 28 9 15 995.8 997.5 10.4
18/05:30am -1.0 -6.9 -1.0 100 0.0 WSW 20 28 11 15 995.9 997.6 10.4
18/05:00am -1.2 -7.2 -1.2 100 0.0 WSW 20 24 11 13 995.3 996.9 10.4
18/04:30am -1.2 -7.5 -1.2 100 0.0 WSW 22 30 12 16 995.0 996.7 10.4
18/04:00am -1.1 -5.7 -1.1 100 0.0 WSW 13 20 7 11 994.9 996.6 10.4
18/03:30am -0.8 -4.6 -0.8 100 0.0 WSW 9 15 5 8 994.6 996.2 10.4
18/03:00am -0.8 -6.5 -0.8 100 0.0 WSW 19 26 10 14 994.4 996.0 10.4
18/02:30am -0.6 -6.8 -0.6 100 0.0 SW 22 33 12 18 993.9 995.5 10.4
18/02:00am -0.8 -6.1 -0.8 100 0.0 SW 17 26 9 14 993.9 995.5 10.4
18/01:30am -0.9 -6.2 -0.9 100 0.0 SW 17 28 9 15 994.0 995.7 10.4
18/01:00am -0.8 -7.8 -0.8 100 0.0 SW 26 37 14 20 993.7 995.3 10.4
18/12:30am -0.8 -5.7 -0.8 100 0.0 SW 15 22 8 12 993.9 995.5 10.4
18/12:00am -0.5 -6.4 -0.5 100 0.0 SW 20 28 11 15 993.9 995.5 10.4
 
Date/Time
EST
Temp
°C
App
Temp
°C
Dew
Point
°C
Rel
Hum
%
Delta-T
°C
Wind Press
QNH
hPa
Press
MSL
hPa
Rain since
9am
mm
Dir  Spd
km/h
Gust
km/h
Spd
kts
Gust
kts
17/11:30pm -0.7 -6.6 -0.7 100 0.0 SW 20 28 11 15 993.6 995.2 10.4
17/11:00pm -0.9 -9.1 -0.9 100 0.0 SW 32 41 17 22 993.5 995.1 10.4
17/10:30pm -0.6 -8.0 -0.6 100 0.0 SW 28 35 15 19 993.5 995.1 10.4
17/10:00pm -0.5 -7.9 -0.5 100 0.0 WSW 28 33 15 18 993.6 995.2 10.4
17/09:47pm -0.5 -8.3 -0.5 100 0.0 WSW 30 43 16 23 993.2 994.9 10.4
17/09:30pm -0.8 -8.2 -0.8 100 0.0 W 28 37 15 20 993.5 995.1 10.4
17/09:00pm -0.2 -7.9 -0.2 100 0.0 W 30 37 16 20 993.2 994.9 10.4
17/08:30pm -0.4 -8.5 -0.4 100 0.0 W 32 43 17 23 993.1 994.7 10.4
17/08:00pm -0.2 -8.5 -0.2 100 0.0 W 33 44 18 24 992.8 994.4 10.4
17/07:38pm -0.1 -7.4 -0.1 100 0.0 WNW 28 50 15 27 992.7 994.3 10.4
17/07:30pm -0.2 -7.5 -0.2 100 0.0 W 28 35 15 19 992.8 994.4 10.4
17/07:00pm -0.4 -9.1 -0.4 100 0.0 WSW 35 46 19 25 992.8 994.4 10.4
17/06:34pm -0.9 -10.8 -0.9 100 0.0 WSW 41 61 22 33 992.4 993.9 10.4
17/06:30pm -0.9 -10.8 -0.9 100 0.0 WSW 41 54 22 29 992.4 993.9 10.4
17/06:22pm -0.9 -11.2 -0.9 100 0.0 W 43 61 23 33 992.0 993.6 10.4
17/06:16pm -0.5 -9.6 -0.5 100 0.0 W 37 61 20 33 991.8 993.4 10.4
17/06:15pm -0.5 -9.2 -0.5 100 0.0 W 35 54 19 29 991.8 993.4 10.4
17/06:06pm -0.6 -10.5 -0.6 100 0.0 WSW 41 59 22 32 992.0 993.6 10.4
17/06:00pm -0.6 -11.4 -0.6 100 0.0 WSW 46 63 25 34 991.7 993.3 10.4
17/05:54pm -0.2 -9.6 -0.2 100 0.0 W 39 63 21 34 991.5 993.0 10.4
17/05:52pm -0.1 -9.1 -0.1 100 0.0 W 37 52 20 28 991.8 993.4 10.4
17/05:37pm -0.1 -8.7 -0.1 100 0.0 WNW 35 54 19 29 991.1 992.7 10.4
17/05:30pm 0.0 -8.1 0.0 100 0.0 WNW 32 46 17 25 991.4 992.9 10.4
17/05:15pm -0.1 -9.1 -0.1 100 0.0 WNW 37 57 20 31 991.0 992.6 10.4
17/05:00pm -0.1 -9.1 -0.1 100 0.0 WNW 37 50 20 27 990.9 992.4 10.4
17/04:42pm -0.4 -8.7 -0.4 100 0.0 W 33 52 18 28 990.8 992.3 10.4
17/04:30pm -0.2 -8.5 -0.2 100 0.0 W 33 50 18 27 991.0 992.6 10.4
17/04:11pm -0.2 -7.9 -0.2 100 0.0 W 30 48 16 26 990.8 992.3 10.4
17/04:00pm -0.1 -7.8 -0.1 100 0.0 W 30 43 16 23 990.9 992.4 10.4

Other Formats:

Comma delimited format used in spreadsheet applications
http://www.bom.gov.au/fwo/IDT60801/IDT60801.95952.axf

JavaScript Object Notation format (JSON) in row-major order
http://www.bom.gov.au/fwo/IDT60801/IDT60801.95952.json